Time;durP1;ratioP1;P1;durP2;ratioP2;P2;SDS_P1;SDS_P2;PMS_P1;PMS_P2;Temp;Humidity;BMP_temperature;BMP_pressure;BME280_temperature;BME280_humidity;BME280_pressure;Samples;Min_cycle;Max_cycle;Signal;HPM_P1;HPM_P2
2021/12/15 00:01:00;;;;;;;96.97;37.15;;;;;;;7.99;100.00;102955.13;5035308;28;20458;-77
2021/12/15 00:03:26;;;;;;;82.38;34.63;;;;;;;8.00;100.00;102950.69;5033122;28;20041;-77
2021/12/15 00:05:52;;;;;;;82.45;34.10;;;;;;;8.02;100.00;102957.66;5035613;28;20081;-76
2021/12/15 00:08:17;;;;;;;86.82;35.30;;;;;;;8.03;100.00;102950.53;5035492;28;20492;-77
2021/12/15 00:10:46;;;;;;;81.90;34.38;;;;;;;8.02;100.00;102951.50;5035065;28;20394;-77
2021/12/15 00:13:13;;;;;;;78.45;34.58;;;;;;;8.00;100.00;102948.91;5035687;28;20045;-77
2021/12/15 00:15:39;;;;;;;80.18;35.72;;;;;;;8.00;100.00;102940.97;5035410;28;20112;-76
2021/12/15 00:18:05;;;;;;;79.93;34.05;;;;;;;8.00;100.00;102946.25;5035299;28;20124;-77
2021/12/15 00:20:31;;;;;;;77.70;33.38;;;;;;;8.01;100.00;102952.41;5035029;28;20084;-78
2021/12/15 00:22:57;;;;;;;79.88;34.78;;;;;;;8.02;100.00;102952.34;5033777;28;20052;-84
2021/12/15 00:25:26;;;;;;;68.50;32.45;;;;;;;8.03;100.00;102951.44;5034660;28;20381;-76
2021/12/15 00:27:53;;;;;;;81.93;34.90;;;;;;;8.03;100.00;102942.59;5035226;28;20037;-76
2021/12/15 00:30:19;;;;;;;77.00;34.22;;;;;;;7.99;100.00;102949.84;5016950;28;20036;-76
2021/12/15 00:32:45;;;;;;;74.55;32.67;;;;;;;8.01;100.00;102942.66;5016888;28;20390;-77
2021/12/15 00:35:11;;;;;;;71.93;33.70;;;;;;;8.02;100.00;102948.84;5034542;28;20026;-77
2021/12/15 00:37:36;;;;;;;76.03;32.33;;;;;;;8.04;100.00;102946.97;5034436;28;20470;-77
2021/12/15 00:40:06;;;;;;;64.10;31.67;;;;;;;8.03;100.00;102948.78;5034506;28;20044;-76
2021/12/15 00:42:31;;;;;;;71.65;31.77;;;;;;;8.05;100.00;102936.28;5016500;28;20124;-76
2021/12/15 00:44:57;;;;;;;65.13;30.38;;;;;;;8.05;100.00;102943.41;5034943;28;20116;-76
2021/12/15 00:47:22;;;;;;;70.20;33.10;;;;;;;8.03;100.00;102955.84;5034628;28;20318;-76
2021/12/15 00:49:48;;;;;;;64.65;30.17;;;;;;;8.05;100.00;102949.56;5034824;28;20511;-75
2021/12/15 00:52:13;;;;;;;60.58;30.48;;;;;;;8.07;100.00;102945.03;5034445;28;20034;-76
2021/12/15 00:54:39;;;;;;;61.05;30.95;;;;;;;8.09;100.00;102948.47;5034236;28;20033;-76
2021/12/15 00:57:05;;;;;;;59.03;31.20;;;;;;;8.09;100.00;102939.66;5034255;28;20033;-76
2021/12/15 00:59:31;;;;;;;71.15;31.17;;;;;;;8.08;100.00;102946.75;5034136;28;20106;-76
2021/12/15 01:01:56;;;;;;;64.60;30.13;;;;;;;8.07;100.00;102939.72;5034452;28;20128;-75
2021/12/15 01:04:24;;;;;;;65.38;31.52;;;;;;;8.03;100.00;102943.47;5016983;28;20032;-76
2021/12/15 01:06:53;;;;;;;75.82;32.22;;;;;;;8.00;100.00;102946.25;5034045;28;20041;-77
2021/12/15 01:09:39;;;;;;;65.93;31.58;;;;;;;7.98;100.00;102942.81;5033942;28;20033;-75
2021/12/15 01:20:15;;;;;;;72.78;32.55;;;;;;;7.98;100.00;102945.44;5033968;28;20034;-76
2021/12/15 01:22:46;;;;;;;64.25;30.65;;;;;;;7.97;100.00;102940.22;5033015;28;20064;-76
2021/12/15 01:25:35;;;;;;;60.72;29.08;;;;;;;7.97;100.00;102949.03;5033766;28;20106;-77
2021/12/15 01:28:00;;;;;;;74.68;31.48;;;;;;;7.96;100.00;102944.69;5033068;28;20095;-77
2021/12/15 01:30:30;;;;;;;63.85;29.73;;;;;;;7.95;100.00;102945.59;5034154;28;20029;-77
2021/12/15 01:32:58;;;;;;;69.13;30.33;;;;;;;7.97;100.00;102946.38;5033564;28;20078;-76
2021/12/15 01:35:24;;;;;;;63.53;28.52;;;;;;;7.95;100.00;102949.09;5033208;28;20096;-76
2021/12/15 01:37:53;;;;;;;59.08;29.02;;;;;;;7.99;100.00;102944.53;5033243;28;20057;-78
2021/12/15 01:40:32;;;;;;;62.30;28.48;;;;;;;8.00;100.00;102954.22;5033269;28;20477;-77
2021/12/15 01:42:59;;;;;;;57.08;27.58;;;;;;;8.06;100.00;102950.41;5033738;28;20033;-77
2021/12/15 01:48:13;;;;;;;55.35;26.30;;;;;;;8.05;100.00;102957.50;5033989;28;20183;-79
2021/12/15 01:50:38;;;;;;;61.90;28.05;;;;;;;8.03;100.00;102959.38;5033382;28;20068;-77
2021/12/15 01:53:05;;;;;;;64.03;28.08;;;;;;;8.03;100.00;102958.50;5033340;28;20038;-77
2021/12/15 01:55:30;;;;;;;54.63;26.65;;;;;;;8.04;100.00;102963.72;5033780;28;20037;-77
2021/12/15 01:57:56;;;;;;;55.85;27.05;;;;;;;8.02;100.00;102970.06;5033359;28;20056;-77
2021/12/15 02:00:44;;;;;;;54.88;26.90;;;;;;;8.07;100.00;102973.34;5015550;28;20462;-77
2021/12/15 02:03:09;;;;;;;54.50;26.95;;;;;;;8.11;100.00;102973.13;5033314;28;20033;-86
2021/12/15 02:05:35;;;;;;;50.40;25.98;;;;;;;8.12;100.00;102971.31;5033634;28;20485;-77
2021/12/15 02:08:02;;;;;;;51.35;25.75;;;;;;;8.10;100.00;102981.16;5033528;28;20057;-76
2021/12/15 02:10:31;;;;;;;57.25;26.70;;;;;;;8.11;100.00;102975.78;5033134;28;20040;-76
2021/12/15 02:12:59;;;;;;;61.47;28.08;;;;;;;8.11;100.00;102985.53;5033101;28;20115;-77
2021/12/15 02:15:30;;;;;;;49.25;26.05;;;;;;;8.10;100.00;102982.00;5033170;28;20065;-77
2021/12/15 02:17:56;;;;;;;64.30;27.67;;;;;;;8.14;100.00;102984.53;5033259;28;20038;-77
2021/12/15 02:20:28;;;;;;;51.47;27.00;;;;;;;8.14;100.00;102980.09;5032959;28;20033;-77
2021/12/15 02:22:53;;;;;;;;;;;;;;;8.19;100.00;102980.72;5029017;28;20050;-78
2021/12/15 02:25:19;;;;;;;59.88;27.00;;;;;;;8.19;100.00;102982.53;5027966;28;19921;-77
2021/12/15 02:27:44;;;;;;;53.80;26.17;;;;;;;8.18;100.00;102986.09;5013744;28;20030;-76
2021/12/15 02:30:47;;;;;;;57.92;28.90;;;;;;;8.20;100.00;102979.78;5013327;28;20029;-77
2021/12/15 02:38:30;;;;;;;50.85;26.00;;;;;;;8.31;100.00;102979.28;5012898;28;20045;-77
2021/12/15 02:41:05;;;;;;;50.60;26.70;;;;;;;8.29;100.00;102973.22;5013128;28;20037;-77
2021/12/15 02:43:30;;;;;;;46.53;24.35;;;;;;;8.28;100.00;102972.34;5013009;28;20034;-75
2021/12/15 02:45:56;;;;;;;53.28;24.33;;;;;;;8.33;100.00;102971.25;5013648;28;20477;-75
2021/12/15 02:48:21;;;;;;;54.20;25.65;;;;;;;8.33;100.00;102973.91;5013179;28;20378;-77
2021/12/15 02:50:47;;;;;;;55.05;26.58;;;;;;;8.29;100.00;102976.72;5013493;28;20443;-76
2021/12/15 02:53:13;;;;;;;47.53;25.60;;;;;;;8.32;100.00;102969.56;5012902;28;20046;-81
2021/12/15 02:55:38;;;;;;;52.60;25.38;;;;;;;8.32;100.00;102978.38;5012623;28;20095;-76
2021/12/15 02:58:04;;;;;;;51.33;25.38;;;;;;;8.30;100.00;102975.78;5012750;28;20038;-75
2021/12/15 03:00:44;;;;;;;55.78;26.48;;;;;;;8.29;100.00;102978.50;5013532;28;20033;-76
2021/12/15 03:03:46;;;;;;;50.80;25.88;;;;;;;8.33;100.00;102980.09;5013689;28;20041;-76
2021/12/15 03:06:11;;;;;;;45.58;24.52;;;;;;;8.38;100.00;102977.22;5016388;28;20042;-76
2021/12/15 03:08:53;;;;;;;54.25;26.02;;;;;;;8.36;100.00;102973.75;5016388;28;20498;-76
2021/12/15 03:16:49;;;;;;;50.40;25.60;;;;;;;8.29;100.00;102981.16;5017241;28;20087;-76
2021/12/15 03:19:15;;;;;;;54.10;25.42;;;;;;;8.29;100.00;102981.16;5016453;28;20033;-76
2021/12/15 03:21:41;;;;;;;54.67;26.52;;;;;;;8.27;100.00;102986.53;5024426;28;20053;-76
2021/12/15 03:24:13;;;;;;;58.13;27.20;;;;;;;8.30;100.00;102982.91;5036590;28;20132;-76
2021/12/15 03:26:49;;;;;;;55.47;25.05;;;;;;;8.28;100.00;102993.56;5036532;28;20118;-76
2021/12/15 03:37:23;;;;;;;41.40;22.40;;;;;;;8.38;100.00;102985.19;5036185;28;20048;-81
2021/12/15 03:39:57;;;;;;;38.38;20.90;;;;;;;8.39;100.00;102984.22;5036094;28;20061;-76
2021/12/15 03:42:31;;;;;;;42.38;21.35;;;;;;;8.38;100.00;102988.69;5036096;28;20096;-77
2021/12/15 03:44:57;;;;;;;40.25;20.80;;;;;;;8.38;100.00;102985.19;5036417;28;20108;-75
2021/12/15 03:47:27;;;;;;;36.25;20.33;;;;;;;8.35;100.00;102982.69;5035766;28;20036;-77
2021/12/15 03:49:54;;;;;;;38.65;19.02;;;;;;;8.37;100.00;103000.22;5035799;28;20030;-77
2021/12/15 03:52:20;;;;;;;39.15;20.23;;;;;;;8.35;100.00;102983.53;5036023;28;20218;-83
2021/12/15 03:54:47;;;;;;;40.75;20.67;;;;;;;8.35;100.00;102991.47;5035234;28;20044;-77
2021/12/15 03:57:13;;;;;;;46.13;20.88;;;;;;;8.33;100.00;103003.09;5035621;28;20030;-77
2021/12/15 03:59:42;;;;;;;44.30;19.52;;;;;;;8.35;100.00;102991.47;5035955;28;20037;-78
2021/12/15 04:02:13;;;;;;;41.67;19.80;;;;;;;8.33;100.00;102995.13;5035333;28;20120;-77
2021/12/15 04:04:39;;;;;;;39.30;20.45;;;;;;;8.32;100.00;102999.59;5035474;28;20032;-78
2021/12/15 04:07:07;;;;;;;44.13;21.63;;;;;;;8.31;100.00;102997.84;5035673;28;20109;-77
2021/12/15 04:09:33;;;;;;;47.55;20.65;;;;;;;8.30;100.00;103002.31;5034968;28;20029;-77
2021/12/15 04:11:59;;;;;;;45.15;20.10;;;;;;;8.33;100.00;103011.03;5035046;28;20040;-77
2021/12/15 04:14:30;;;;;;;39.35;20.20;;;;;;;8.30;100.00;103002.31;5035555;28;20037;-83
2021/12/15 04:17:05;;;;;;;;;;;;;;;8.30;100.00;103010.28;5034528;28;20072;-77
2021/12/15 04:19:33;;;;;;;43.33;19.20;;;;;;;8.30;100.00;103006.78;5035649;28;19913;-78
2021/12/15 04:21:59;;;;;;;43.55;20.35;;;;;;;8.30;100.00;103001.47;5035410;28;20462;-77
2021/12/15 04:24:26;;;;;;;44.08;21.70;;;;;;;8.30;100.00;103010.28;5035097;28;20029;-82
2021/12/15 04:26:54;;;;;;;42.97;21.92;;;;;;;8.29;100.00;103011.19;5035356;28;20059;-77
2021/12/15 04:29:19;;;;;;;41.08;20.85;;;;;;;8.33;100.00;103005.75;5035729;28;20450;-77
2021/12/15 04:32:14;;;;;;;49.22;22.13;;;;;;;8.33;100.00;103009.28;5035328;28;20079;-77
2021/12/15 04:34:40;;;;;;;48.47;21.33;;;;;;;8.36;100.00;103008.25;5027997;28;20038;-77
2021/12/15 04:37:05;;;;;;;49.28;20.90;;;;;;;8.34;100.00;103005.66;5035071;28;20029;-77
2021/12/15 04:39:31;;;;;;;47.00;22.80;;;;;;;8.29;100.00;102997.94;5034917;28;20511;-78
2021/12/15 04:41:58;;;;;;;47.45;21.40;;;;;;;8.30;100.00;102999.66;5034535;28;20034;-77
2021/12/15 04:44:27;;;;;;;37.88;20.90;;;;;;;8.28;100.00;102998.88;5035002;28;20523;-77
2021/12/15 04:47:08;;;;;;;50.53;22.45;;;;;;;8.27;100.00;102998.91;5035171;28;20053;-77
2021/12/15 04:49:38;;;;;;;43.17;20.55;;;;;;;8.32;100.00;103017.31;5034657;28;20030;-78
2021/12/15 04:52:05;;;;;;;43.08;21.00;;;;;;;8.32;100.00;103012.84;5034888;28;20362;-77
2021/12/15 04:54:31;;;;;;;45.70;21.88;;;;;;;8.30;100.00;103014.72;5034408;28;20123;-78
2021/12/15 04:56:57;;;;;;;43.15;21.00;;;;;;;8.30;100.00;103012.06;5034477;28;20453;-77
2021/12/15 04:59:22;;;;;;;44.05;20.13;;;;;;;8.31;100.00;103016.44;5034664;28;20381;-77
2021/12/15 05:01:48;;;;;;;46.85;21.23;;;;;;;8.29;100.00;103010.34;5034388;28;20034;-77
2021/12/15 05:04:14;;;;;;;48.90;22.55;;;;;;;8.29;100.00;103013.00;5016793;28;20057;-77
2021/12/15 05:06:40;;;;;;;46.92;21.88;;;;;;;8.27;100.00;103021.03;5034326;28;20061;-77
2021/12/15 05:09:06;;;;;;;40.10;19.63;;;;;;;8.24;100.00;103009.69;5034005;28;20037;-77
2021/12/15 05:11:32;;;;;;;51.65;22.52;;;;;;;8.24;100.00;103017.63;5016730;28;20413;-83
2021/12/15 05:13:57;;;;;;;50.97;21.63;;;;;;;8.22;100.00;103015.06;5033999;28;20465;-77
2021/12/15 05:16:23;;;;;;;47.15;20.85;;;;;;;8.22;100.00;103024.81;5034216;28;20033;-76
2021/12/15 05:18:49;;;;;;;45.28;20.38;;;;;;;8.22;100.00;103022.16;5033882;28;20523;-77
2021/12/15 05:21:16;;;;;;;46.40;21.58;;;;;;;8.23;100.00;103019.44;5033577;28;20489;-77
2021/12/15 05:23:44;;;;;;;47.08;21.17;;;;;;;8.26;100.00;103015.78;5034081;28;20029;-77
2021/12/15 05:26:11;;;;;;;40.42;20.65;;;;;;;8.28;100.00;103020.09;5033813;28;20120;-77
2021/12/15 05:28:36;;;;;;;45.33;20.20;;;;;;;8.31;100.00;103019.06;5033685;28;20040;-77
2021/12/15 05:31:02;;;;;;;42.63;20.45;;;;;;;8.35;100.00;103022.47;5034260;28;20037;-76
2021/12/15 05:33:28;;;;;;;42.25;19.35;;;;;;;8.35;100.00;103022.47;5033938;28;20040;-77
2021/12/15 05:35:56;;;;;;;40.90;19.23;;;;;;;8.37;100.00;103029.41;5034065;28;20025;-77
2021/12/15 05:38:22;;;;;;;43.58;20.08;;;;;;;8.39;100.00;103032.84;5033811;28;20022;-77
2021/12/15 05:40:47;;;;;;;47.13;20.65;;;;;;;8.41;100.00;103035.44;5033663;28;20029;-76
2021/12/15 05:43:13;;;;;;;47.40;21.98;;;;;;;8.42;100.00;103027.41;5034030;28;20026;-77
2021/12/15 05:45:40;;;;;;;47.85;22.70;;;;;;;8.40;100.00;103029.25;5033668;28;20068;-77
2021/12/15 05:48:10;;;;;;;49.63;25.00;;;;;;;8.38;100.00;103031.13;5033603;28;20044;-77
2021/12/15 05:50:36;;;;;;;47.90;23.90;;;;;;;8.41;100.00;103024.81;5033578;28;20044;-81
2021/12/15 05:53:03;;;;;;;50.13;24.35;;;;;;;8.38;100.00;103030.28;5033849;28;20037;-76
2021/12/15 05:55:30;;;;;;;56.28;25.90;;;;;;;8.38;100.00;103033.78;5033021;28;20060;-76
2021/12/15 05:57:55;;;;;;;59.95;26.30;;;;;;;8.38;100.00;103036.44;5033070;28;20029;-76
2021/12/15 06:00:27;;;;;;;74.75;29.33;;;;;;;8.38;100.00;103027.63;5016111;28;20076;-77
2021/12/15 06:02:54;;;;;;;69.32;28.52;;;;;;;8.39;100.00;103027.56;5033475;28;20489;-77
2021/12/15 06:05:20;;;;;;;64.85;28.10;;;;;;;8.39;100.00;103021.38;5033448;28;20091;-76
2021/12/15 06:07:46;;;;;;;56.83;27.00;;;;;;;8.38;100.00;103017.88;5033285;28;20029;-76
2021/12/15 06:10:16;;;;;;;76.72;28.90;;;;;;;8.41;100.00;103028.34;5033370;28;20049;-77
2021/12/15 06:12:43;;;;;;;67.63;28.25;;;;;;;8.40;100.00;103031.91;5032887;28;20026;-77
2021/12/15 06:15:09;;;;;;;67.05;27.05;;;;;;;8.37;100.00;103040.00;5033291;28;20036;-76
2021/12/15 06:17:35;;;;;;;63.00;27.63;;;;;;;8.35;100.00;103035.72;5033288;28;20033;-78
2021/12/15 06:20:00;;;;;;;73.15;28.98;;;;;;;8.34;100.00;103037.50;5033324;28;20033;-76
2021/12/15 06:22:28;;;;;;;71.82;28.25;;;;;;;8.34;100.00;103040.16;5033659;28;20060;-76
2021/12/15 06:24:56;;;;;;;66.70;27.88;;;;;;;8.33;100.00;103042.88;5033098;28;20033;-74
2021/12/15 06:27:23;;;;;;;68.80;26.60;;;;;;;8.36;100.00;103042.72;5015301;28;20385;-73
2021/12/15 06:29:50;;;;;;;65.30;26.42;;;;;;;8.37;100.00;103050.63;5033252;28;20036;-73
2021/12/15 06:32:16;;;;;;;58.67;25.70;;;;;;;8.38;100.00;103055.00;5033062;28;20119;-72
2021/12/15 06:34:42;;;;;;;62.35;25.75;;;;;;;8.36;100.00;103050.69;5032739;28;20061;-79
2021/12/15 06:37:09;;;;;;;65.35;26.02;;;;;;;8.36;100.00;103058.66;5032620;28;20029;-74
2021/12/15 06:39:35;;;;;;;68.68;27.25;;;;;;;8.34;100.00;103055.22;5034177;28;20064;-78
2021/12/15 06:42:02;;;;;;;62.78;26.02;;;;;;;8.38;100.00;103062.13;5019167;28;20033;-75
2021/12/15 06:44:27;;;;;;;63.03;26.80;;;;;;;8.40;100.00;103058.44;5036372;28;20040;-76
2021/12/15 06:47:22;;;;;;;64.97;26.35;;;;;;;8.42;100.00;103053.06;5036825;28;20034;-74
2021/12/15 06:58:23;;;;;;;68.38;25.95;;;;;;;8.43;100.00;103074.25;4956217;29;20049;-75
2021/12/15 07:00:56;;;;;;;53.50;25.52;;;;;;;8.46;100.00;103078.56;5004252;28;20123;-75
2021/12/15 07:03:22;;;;;;;53.20;25.63;;;;;;;8.46;100.00;103076.78;5036366;28;20030;-74
2021/12/15 07:05:48;;;;;;;59.10;23.55;;;;;;;8.49;100.00;103073.09;5037903;28;20462;-75
2021/12/15 07:08:15;;;;;;;56.47;26.42;;;;;;;8.52;100.00;103077.41;5036974;28;20034;-74
2021/12/15 07:10:44;;;;;;;53.60;25.52;;;;;;;8.51;100.00;103081.00;5035955;28;20061;-77
2021/12/15 07:13:11;;;;;;;57.03;26.20;;;;;;;8.52;100.00;103077.41;5036395;28;20112;-77
2021/12/15 07:15:37;;;;;;;53.60;26.10;;;;;;;8.53;100.00;103080.00;5035883;28;20487;-75
2021/12/15 07:18:08;;;;;;;52.72;25.95;;;;;;;8.55;100.00;103080.78;5036068;28;20064;-77
2021/12/15 07:20:47;;;;;;;50.97;24.83;;;;;;;8.55;100.00;103083.44;5036431;28;20033;-74
2021/12/15 07:23:21;;;;;;;49.95;23.92;;;;;;;8.53;100.00;103082.66;5036862;28;20394;-77
2021/12/15 07:25:49;;;;;;;50.60;24.45;;;;;;;8.54;100.00;103087.03;5036247;28;20469;-77
2021/12/15 07:28:17;;;;;;;53.13;24.10;;;;;;;8.53;100.00;103082.66;5036212;28;20083;-76
2021/12/15 07:30:43;;;;;;;48.90;23.17;;;;;;;8.53;100.00;103079.16;5035046;28;20021;-73
2021/12/15 07:33:11;;;;;;;49.78;23.48;;;;;;;8.52;100.00;103088.88;5035194;28;20037;-75
2021/12/15 07:35:38;;;;;;;51.22;23.35;;;;;;;8.51;100.00;103086.31;5035054;28;20036;-75
2021/12/15 07:38:04;;;;;;;46.67;22.98;;;;;;;8.49;100.00;103081.06;5017661;28;20045;-75
2021/12/15 07:40:31;;;;;;;49.20;21.23;;;;;;;8.51;100.00;103078.34;5035047;28;20091;-74
2021/12/15 07:45:35;;;;;;;46.28;21.25;;;;;;;8.53;100.00;103087.97;5035515;28;20052;-76
2021/12/15 07:48:02;;;;;;;47.90;21.13;;;;;;;8.51;100.00;103078.34;5035086;28;20029;-77
2021/12/15 07:50:30;;;;;;;42.42;20.88;;;;;;;8.49;100.00;103082.88;5034312;28;20033;-75
2021/12/15 07:52:56;;;;;;;54.65;22.13;;;;;;;8.47;100.00;103089.09;5035132;28;20032;-75
2021/12/15 07:55:22;;;;;;;47.83;21.73;;;;;;;8.50;100.00;103090.75;5034820;28;20033;-74
2021/12/15 07:57:50;;;;;;;45.20;20.27;;;;;;;8.53;100.00;103093.25;5034481;28;20529;-77
2021/12/15 08:00:16;;;;;;;59.80;23.83;;;;;;;8.52;100.00;103096.00;5034617;28;20029;-75
2021/12/15 08:02:42;;;;;;;49.30;22.73;;;;;;;8.51;100.00;103096.91;5034275;28;20033;-79
2021/12/15 08:05:08;;;;;;;49.70;22.48;;;;;;;8.53;100.00;103097.72;5034832;28;20125;-76
2021/12/15 08:07:34;;;;;;;43.90;21.48;;;;;;;8.54;100.00;103102.06;5034444;28;20052;-76
2021/12/15 08:10:00;;;;;;;46.67;20.30;;;;;;;8.56;100.00;103098.44;5034500;28;20462;-74
2021/12/15 08:12:27;;;;;;;46.40;21.00;;;;;;;8.60;100.00;103093.84;5034312;28;20095;-73
2021/12/15 08:14:53;;;;;;;45.60;19.73;;;;;;;8.62;100.00;103097.28;5034187;28;20037;-77
2021/12/15 08:17:20;;;;;;;45.30;19.17;;;;;;;8.64;100.00;103103.38;5034378;28;20048;-73
2021/12/15 08:19:45;;;;;;;45.85;18.65;;;;;;;8.66;100.00;103104.19;5034187;28;20080;-78
2021/12/15 08:22:11;;;;;;;44.72;18.27;;;;;;;8.65;100.00;103107.75;5034265;28;20459;-73
2021/12/15 08:24:36;;;;;;;51.55;17.88;;;;;;;8.64;100.00;103109.56;5033860;28;20040;-75
2021/12/15 08:27:02;;;;;;;40.08;17.83;;;;;;;8.67;100.00;103110.34;5033672;28;20554;-80
2021/12/15 08:29:28;;;;;;;43.10;17.95;;;;;;;8.64;100.00;103112.22;5016339;28;20489;-77
2021/12/15 08:31:53;;;;;;;36.90;15.18;;;;;;;8.64;100.00;103103.38;5033627;28;20064;-77
2021/12/15 08:34:19;;;;;;;37.40;15.88;;;;;;;8.65;100.00;103108.63;5016375;28;20045;-76
2021/12/15 08:36:49;;;;;;;32.65;14.68;;;;;;;8.69;100.00;103116.44;5016175;28;20034;-77
2021/12/15 08:39:15;;;;;;;29.15;13.43;;;;;;;8.71;100.00;103118.09;5032599;28;20061;-76
2021/12/15 08:41:41;;;;;;;34.55;14.63;;;;;;;8.73;100.00;103121.56;5034653;28;20449;-80
2021/12/15 08:44:08;;;;;;;29.55;13.73;;;;;;;8.73;100.00;103125.97;5015932;28;20025;-77
2021/12/15 08:46:39;;;;;;;28.55;13.73;;;;;;;8.73;100.00;103120.66;5033995;28;20030;-81
2021/12/15 08:49:07;;;;;;;37.83;13.85;;;;;;;8.73;100.00;103125.97;5033484;28;20344;-76
2021/12/15 08:51:34;;;;;;;33.38;13.23;;;;;;;8.71;100.00;103127.84;5033456;28;20531;-78
2021/12/15 08:54:03;;;;;;;34.15;14.02;;;;;;;8.71;100.00;103127.84;5033465;28;20116;-75
2021/12/15 08:56:29;;;;;;;25.52;11.85;;;;;;;8.73;100.00;103129.53;5033737;28;20082;-76
2021/12/15 08:58:55;;;;;;;38.28;12.43;;;;;;;8.73;100.00;103129.53;5033470;28;20025;-81
2021/12/15 09:01:22;;;;;;;29.08;12.20;;;;;;;8.71;100.00;103131.38;5032786;28;20427;-77
2021/12/15 09:03:47;;;;;;;27.30;11.63;;;;;;;8.70;100.00;103131.44;5033450;28;20030;-74
2021/12/15 09:06:13;;;;;;;30.58;11.30;;;;;;;8.73;100.00;103133.94;5033521;28;20044;-75
2021/12/15 09:08:41;;;;;;;23.08;9.68;;;;;;;8.74;100.00;103139.19;5033416;28;20044;-76
2021/12/15 09:11:11;;;;;;;21.92;9.60;;;;;;;8.76;100.00;103140.00;5033093;28;20104;-78
2021/12/15 09:13:38;;;;;;;24.55;9.85;;;;;;;8.75;100.00;103135.59;5015173;28;20083;-81
2021/12/15 09:16:07;;;;;;;23.25;10.18;;;;;;;8.78;100.00;103146.06;5033103;28;20479;-77
2021/12/15 09:18:33;;;;;;;23.48;9.15;;;;;;;8.79;100.00;103146.94;5033273;28;20029;-75
2021/12/15 09:21:00;;;;;;;25.55;8.65;;;;;;;8.82;99.53;103150.31;5032399;28;20540;-75
2021/12/15 09:23:26;;;;;;;23.48;8.35;;;;;;;8.85;98.87;103148.44;5015160;28;20061;-75
2021/12/15 09:25:52;;;;;;;21.05;8.45;;;;;;;8.88;98.21;103154.47;5032746;28;20045;-77
2021/12/15 09:28:19;;;;;;;25.58;8.35;;;;;;;8.90;97.44;103157.06;5032728;28;20049;-78
2021/12/15 09:30:47;;;;;;;16.85;7.35;;;;;;;8.90;97.45;103147.31;5033207;28;20037;-76
2021/12/15 09:33:25;;;;;;;27.15;8.52;;;;;;;8.90;97.61;103157.06;5015245;28;20037;-76
2021/12/15 09:35:51;;;;;;;20.67;8.40;;;;;;;8.91;97.35;103161.44;5032891;28;20044;-85
2021/12/15 09:38:19;;;;;;;23.38;8.32;;;;;;;8.93;97.53;103163.09;5032408;28;20036;-76
2021/12/15 09:40:47;;;;;;;20.25;8.25;;;;;;;8.96;97.34;103170.91;5032582;28;20037;-75
2021/12/15 09:43:13;;;;;;;20.98;8.00;;;;;;;8.98;97.45;103174.34;5032625;28;20458;-77
2021/12/15 09:45:52;;;;;;;24.38;8.38;;;;;;;8.99;97.80;103180.53;5032384;28;20382;-77
2021/12/15 10:17:49;;;;;;;21.35;7.63;;;;;;;9.06;96.71;103195.25;5032369;28;20122;-74
2021/12/15 10:20:20;;;;;;;26.25;7.70;;;;;;;9.09;96.71;103200.41;5031751;28;20150;-74
2021/12/15 10:22:48;;;;;;;25.77;8.30;;;;;;;9.13;96.61;103206.44;5031736;28;20050;-79
2021/12/15 10:25:16;;;;;;;26.00;8.05;;;;;;;9.14;95.13;103195.75;5032138;28;20087;-79
2021/12/15 10:27:49;;;;;;;19.60;6.43;;;;;;;9.18;94.15;103192.00;5032228;28;20060;-75
2021/12/15 10:30:22;;;;;;;29.17;6.50;;;;;;;9.26;92.69;103193.44;5013633;28;20033;-75
2021/12/15 10:32:51;;;;;;;15.70;5.95;;;;;;;9.33;92.01;103194.84;5032329;28;20101;-77
2021/12/15 10:35:42;;;;;;;20.85;4.90;;;;;;;9.37;90.17;103191.13;5031817;28;20025;-77
2021/12/15 10:38:16;;;;;;;14.10;5.45;;;;;;;9.40;89.84;103198.94;5014535;28;20033;-76
2021/12/15 10:40:50;;;;;;;12.63;4.90;;;;;;;9.39;89.39;103202.56;5031748;28;20033;-76
2021/12/15 10:43:16;;;;;;;14.35;5.38;;;;;;;9.43;88.23;103200.59;5031507;28;20027;-78
2021/12/15 10:45:47;;;;;;;16.95;5.32;;;;;;;9.49;87.96;103205.63;5031854;28;20458;-83
2021/12/15 10:48:24;;;;;;;15.63;5.20;;;;;;;9.50;88.43;103210.84;5032373;28;20420;-76
2021/12/15 10:50:50;;;;;;;14.88;4.82;;;;;;;9.51;88.94;103211.75;5031169;28;20373;-77
2021/12/15 10:53:32;;;;;;;17.02;5.13;;;;;;;9.51;89.01;103204.63;5032044;28;20040;-77
2021/12/15 10:55:58;;;;;;;10.85;4.45;;;;;;;9.57;89.05;103208.78;5032265;28;20025;-75
2021/12/15 10:58:33;;;;;;;12.93;4.57;;;;;;;9.58;87.69;103205.16;5031519;28;20481;-83
2021/12/15 11:00:59;;;;;;;14.52;4.30;;;;;;;9.61;88.68;103198.84;5032265;28;20443;-74
2021/12/15 11:03:32;;;;;;;12.57;4.03;;;;;;;9.61;87.68;103215.66;5031275;28;20033;-81
2021/12/15 11:05:58;;;;;;;18.63;4.03;;;;;;;9.64;87.07;103199.56;5032114;28;20442;-86
2021/12/15 11:08:23;;;;;;;18.35;3.65;;;;;;;9.63;86.50;103207.59;5031751;28;20030;-81
2021/12/15 11:10:51;;;;;;;10.68;3.50;;;;;;;9.66;86.18;103200.34;5032172;28;20435;-77
2021/12/15 11:13:16;;;;;;;13.88;4.00;;;;;;;9.66;86.04;103192.38;5032138;28;20466;-82
2021/12/15 11:15:48;;;;;;;16.55;3.40;;;;;;;9.71;85.63;103195.66;5031639;28;20091;-77
2021/12/15 11:18:16;;;;;;;;;;;;;;;9.74;85.39;103192.00;5031984;28;20033;-81
2021/12/15 11:20:46;;;;;;;11.88;3.22;;;;;;;9.77;84.59;103191.84;5031665;28;20022;-79
2021/12/15 11:23:14;;;;;;;14.52;3.75;;;;;;;9.79;83.50;103195.31;5031709;28;20119;-82
2021/12/15 11:25:46;;;;;;;8.38;2.97;;;;;;;9.82;82.81;103199.59;5033735;28;20430;-78
2021/12/15 11:28:16;;;;;;;9.00;3.03;;;;;;;9.84;82.27;103198.56;5035469;28;20112;-82
2021/12/15 11:30:54;;;;;;;11.60;3.28;;;;;;;9.82;82.38;103202.25;5035245;28;20121;-76
2021/12/15 11:33:41;;;;;;;9.50;3.00;;;;;;;9.80;83.25;103194.34;5035288;28;20029;-77
2021/12/15 11:36:08;;;;;;;11.18;3.05;;;;;;;9.83;83.43;103198.66;5034720;28;20377;-74
2021/12/15 11:38:36;;;;;;;9.73;2.95;;;;;;;9.86;83.27;103201.16;5034610;28;20021;-76
2021/12/15 11:41:21;;;;;;;7.85;3.00;;;;;;;9.86;82.48;103198.50;5034916;28;20109;-82
2021/12/15 11:43:51;;;;;;;12.18;3.00;;;;;;;9.82;82.50;103199.59;5034433;28;20410;-81
2021/12/15 11:46:40;;;;;;;15.38;3.60;;;;;;;9.82;83.42;103205.78;5034864;28;20041;-77
2021/12/15 11:49:13;;;;;;;11.32;3.30;;;;;;;9.86;83.65;103201.16;5035431;28;20093;-75
2021/12/15 11:51:45;;;;;;;13.00;3.35;;;;;;;9.87;82.90;103200.22;5034644;28;20458;-80
2021/12/15 11:54:19;;;;;;;18.52;3.55;;;;;;;9.87;83.00;103193.09;5034848;28;20049;-80
2021/12/15 11:56:48;;;;;;;16.65;3.88;;;;;;;9.92;83.32;103192.88;5034338;28;20122;-76
2021/12/15 11:59:14;;;;;;;15.70;4.15;;;;;;;9.87;83.84;103189.59;5034198;28;20472;-81
2021/12/15 12:01:50;;;;;;;12.65;3.78;;;;;;;9.91;83.76;103198.25;5034431;28;20029;-76
2021/12/15 12:04:23;;;;;;;19.70;4.03;;;;;;;9.89;84.78;103195.69;5034865;28;20365;-78
2021/12/15 12:06:54;;;;;;;10.85;3.90;;;;;;;9.86;84.48;103190.53;5034430;28;20025;-78
2021/12/15 12:09:21;;;;;;;;;;;;;;;9.85;84.05;103196.75;5035623;28;20453;-78
2021/12/15 12:11:53;;;;;;;18.45;3.92;;;;;;;9.87;83.64;103185.13;5035270;28;19909;-77
2021/12/15 12:14:37;;;;;;;9.73;3.95;;;;;;;9.85;84.05;103181.69;5034884;28;20469;-80
2021/12/15 12:17:06;;;;;;;12.48;3.67;;;;;;;9.80;85.37;103182.84;5034029;28;20442;-73
2021/12/15 12:19:33;;;;;;;15.27;4.87;;;;;;;9.81;85.85;103173.94;5034196;28;20477;-74
2021/12/15 12:21:58;;;;;;;12.70;4.13;;;;;;;9.83;86.07;103175.56;5034275;28;20331;-80
2021/12/15 12:24:25;;;;;;;15.82;4.47;;;;;;;9.87;85.12;103170.97;5033989;28;20424;-78
2021/12/15 12:26:51;;;;;;;10.75;5.00;;;;;;;9.89;84.75;103174.41;5016220;28;20040;-76
2021/12/15 12:29:16;;;;;;;12.13;4.68;;;;;;;9.87;85.40;103176.31;5033847;28;20041;-75
2021/12/15 12:31:42;;;;;;;22.67;5.63;;;;;;;9.87;85.77;103173.63;5033945;28;20435;-83